Latest Weather Observations for Proserpine

IDQ60801

Issued at 10:31 pm EST Saturday 29 August 2015 (issued every 30 minutes, with the page automatically refreshed every 10 minutes)

About weather observations | Map of weather stations | Latest weather observations for QLD | Other Formats
Station Details ID: 033247 Name: PROSERPINE AIRPORT Lat: -20.49 Lon: 148.56 Height: 19.7 m
Data from the previous 72 hours. | See also: Recent months at Proserpine
Date/Time
EST
Temp
°C
App
Temp
°C
Dew
Point
Rel
Hum
%
Delta-T
°C
Wind Press
QNH
hPa
Press
MSL
hPa
Rain
since 9 am
mm
Dir
 
Spd
km/h
Gust
km/h
Spd
kts
Gust
kts
29/10:00pm 17.9 20.2 16.8 93 0.7 CALM 0 2 0 1 1017.9 1017.8 0.0
29/09:30pm 18.3 19.7 17.3 94 0.6 SW 6 7 3 4 1018.0 1017.9 0.0
29/09:00pm 18.7 20.2 17.5 93 0.7 S 6 9 3 5 1018.0 1017.9 0.0
29/08:30pm 18.8 20.0 16.9 89 1.1 SSE 6 7 3 4 1018.0 1017.9 0.0
29/08:00pm 19.1 20.4 17.1 88 1.2 SSE 6 7 3 4 1017.8 1017.7 0.0
29/07:30pm 19.4 20.5 16.6 84 1.7 SSE 6 7 3 4 1017.5 1017.5 0.0
29/07:00pm 20.4 21.5 17.0 81 2.1 SE 7 9 4 5 1017.1 1017.1 0.0
29/06:30pm 21.5 22.8 17.5 78 2.5 SE 7 9 4 5 1016.9 1016.9 0.0
29/06:00pm 22.8 23.5 17.9 74 3.1 ESE 11 13 6 7 1016.4 1016.4 0.0
29/05:30pm 23.8 23.8 18.2 71 3.5 ESE 15 22 8 12 1016.4 1016.4 0.0
29/05:00pm 24.4 23.9 17.9 67 4.1 ESE 17 22 9 12 1016.4 1016.4 0.0
29/04:30pm 25.2 24.1 17.4 62 4.9 ESE 19 26 10 14 1016.3 1016.3 0.0
29/04:00pm 26.1 25.0 17.2 58 5.5 ESE 19 24 10 13 1016.3 1016.3 0.0
29/03:30pm 26.5 25.3 17.0 56 5.9 ESE 19 28 10 15 1016.3 1016.3 0.0
29/03:00pm 26.7 25.4 17.2 56 5.9 ESE 20 30 11 16 1016.2 1016.2 0.0
29/02:30pm 27.2 26.1 17.4 55 6.2 E 19 30 10 16 1016.6 1016.6 0.0
29/02:00pm 26.4 25.3 16.3 53 6.2 E 17 26 9 14 1017.1 1017.1 0.0
29/01:30pm 27.6 26.8 17.2 53 6.5 E 17 26 9 14 1017.5 1017.5 0.0
29/01:00pm 26.6 25.7 16.8 55 6.1 E 17 26 9 14 1018.2 1018.1 0.0
29/12:30pm 26.1 25.3 16.1 54 6.1 ESE 15 22 8 12 1018.9 1018.8 0.0
29/12:00pm 25.2 24.3 16.9 60 5.1 ESE 17 26 9 14 1019.8 1019.7 0.0
29/11:30am 25.2 24.6 18.4 66 4.3 ESE 19 24 10 13 1020.1 1020.0 0.0
29/11:00am 24.8 23.8 17.5 64 4.5 ESE 19 24 10 13 1020.6 1020.5 0.0
29/10:30am 24.8 25.6 17.3 63 4.7 E 9 17 5 9 1020.9 1020.8 0.0
29/10:00am 24.9 25.1 17.6 64 4.6 E 13 20 7 11 1020.9 1020.8 0.0
29/09:30am 23.9 24.2 17.9 69 3.8 E 13 20 7 11 1020.8 1020.7 0.0
29/09:00am 23.7 24.6 18.4 72 3.3 ESE 11 15 6 8 1020.8 1020.7 0.0
29/08:30am 23.1 23.9 18.2 74 3.1 SE 11 17 6 9 1020.6 1020.5 0.0
29/08:00am 21.1 22.7 17.9 82 2.0 SSE 6 7 3 4 1020.5 1020.4 0.0
29/07:30am 18.9 19.7 17.4 91 0.9 S 9 11 5 6 1020.2 1020.1 0.0
29/07:00am 16.6 17.5 16.1 97 0.3 SW 6 7 3 4 1019.8 1019.7 0.0
29/06:30am 14.8 16.1 14.0 95 0.5 CALM 0 0 0 0 1019.7 1019.6 0.0
29/06:00am 15.8 17.5 15.2 96 0.3 CALM 0 0 0 0 1019.1 1019.0 0.0
29/05:30am 15.8 17.5 15.2 96 0.3 CALM 0 6 0 3 1018.9 1018.8 0.0
29/05:00am 16.0 16.9 15.2 95 0.5 SW 4 6 2 3 1018.6 1018.5 0.0
29/04:30am 16.3 16.9 15.7 96 0.4 SSW 7 9 4 5 1018.4 1018.3 0.0
29/04:00am 16.2 18.0 15.6 96 0.3 CALM 0 0 0 0 1018.3 1018.2 0.0
29/03:30am 16.2 16.9 15.6 96 0.4 SSW 6 7 3 4 1018.3 1018.2 0.0
29/03:00am 16.4 16.6 15.8 96 0.4 SSW 9 11 5 6 1018.5 1018.4 0.0
29/02:30am 16.2 16.7 15.6 96 0.4 SSW 7 9 4 5 1018.8 1018.7 0.0
29/02:00am 16.6 17.5 16.0 96 0.4 SSW 6 7 3 4 1019.2 1019.1 0.0
29/01:30am 16.8 17.2 16.2 96 0.4 SSW 9 13 5 7 1019.7 1019.6 0.0
29/01:00am 17.0 17.4 16.4 96 0.4 SSW 9 11 5 6 1020.0 1019.9 0.0
29/12:30am 17.2 18.0 16.4 95 0.5 SSW 7 11 4 6 1020.1 1020.0 0.0
29/12:00am 17.6 19.9 16.8 95 0.5 CALM 0 6 0 3 1020.3 1020.2 0.0
 
Date/Time
EST
Temp
°C
App
Temp
°C
Dew
Point
Rel
Hum
%
Delta-T
°C
Wind Press
QNH
hPa
Press
MSL
hPa
Rain
since 9 am
mm
Dir
 
Spd
km/h
Gust
km/h
Spd
kts
Gust
kts
28/11:30pm 17.7 19.9 16.6 93 0.7 CALM 0 0 0 0 1020.3 1020.2 0.0
28/11:00pm 17.9 18.9 16.8 93 0.7 SW 7 9 4 5 1020.4 1020.3 0.0
28/10:30pm 18.7 19.9 17.4 92 0.8 SSW 7 9 4 5 1020.4 1020.3 0.0
28/10:25pm 18.8 19.7 17.5 92 0.8 SSW 9 11 5 6 1020.5 1020.4 0.0
28/10:10pm 18.9 19.5 17.7 93 0.7 SSW 11 13 6 7 1020.4 1020.3 0.0
28/10:00pm 18.8 19.4 17.8 94 0.6 SSW 11 13 6 7 1020.4 1020.3 0.0
28/09:30pm 18.7 19.9 16.8 89 1.1 SSW 6 9 3 5 1020.3 1020.2 0.0
28/09:00pm 19.6 21.0 17.7 89 1.2 SSE 7 9 4 5 1020.2 1020.1 0.0
28/08:30pm 19.7 21.1 17.8 89 1.2 S 7 9 4 5 1020.2 1020.1 0.0
28/08:00pm 19.9 21.0 18.0 89 1.2 SE 9 11 5 6 1020.0 1019.9 0.0
28/07:30pm 20.4 21.3 18.3 88 1.3 ESE 11 15 6 8 1019.5 1019.4 0.0
28/07:00pm 20.7 21.9 18.3 86 1.5 ESE 9 13 5 7 1019.1 1019.0 0.0
28/06:30pm 21.3 21.8 18.3 83 1.9 ESE 13 17 7 9 1018.8 1018.7 0.0
28/06:00pm 22.0 21.4 18.4 80 2.3 ESE 19 26 10 14 1018.3 1018.2 0.0
28/05:30pm 22.8 21.8 17.9 74 3.1 ESE 20 30 11 16 1018.0 1017.9 0.0
28/05:00pm 24.2 22.4 17.0 64 4.4 ESE 22 33 12 18 1017.5 1017.5 0.0
28/04:30pm 24.9 22.9 15.5 56 5.7 ESE 20 28 11 15 1017.2 1017.2 0.0
28/04:00pm 25.2 22.9 15.8 56 5.7 ESE 22 32 12 17 1016.7 1016.7 0.0
28/03:30pm 26.9 24.2 14.6 46 7.4 ESE 22 30 12 16 1016.6 1016.6 0.0
28/03:00pm 27.4 24.4 13.7 43 8.1 ESE 22 35 12 19 1016.5 1016.5 0.0
28/02:30pm 27.7 25.0 13.6 42 8.4 E 20 28 11 15 1016.2 1016.2 0.0
28/02:00pm 27.6 25.4 14.3 44 8.0 E 19 28 10 15 1017.0 1017.0 0.0
28/01:30pm 27.9 25.2 13.4 40 8.6 E 20 30 11 16 1017.5 1017.5 0.0
28/01:00pm 27.7 25.0 14.7 45 7.8 E 22 32 12 17 1018.2 1018.1 0.0
28/12:30pm 27.3 25.2 14.7 46 7.6 ESE 19 30 10 16 1018.7 1018.6 0.0
28/12:00pm 26.9 25.4 15.3 49 7.0 ESE 17 28 9 15 1019.3 1019.2 0.0
28/11:30am 26.7 25.1 15.1 49 7.0 E 17 24 9 13 1019.8 1019.7 0.0
28/11:00am 25.4 24.9 16.8 59 5.3 ESE 15 24 8 13 1020.3 1020.2 0.0
28/10:30am 25.5 26.1 17.7 62 4.9 E 11 17 6 9 1020.6 1020.5 0.0
28/10:00am 24.0 24.4 18.2 70 3.6 ESE 13 19 7 10 1020.9 1020.8 0.0
28/09:30am 23.7 24.2 18.4 72 3.3 SE 13 17 7 9 1021.0 1020.9 0.0
28/09:00am 22.3 23.1 18.1 77 2.6 SE 11 13 6 7 1021.1 1021.0 0.0
28/08:30am 21.0 22.6 18.2 84 1.7 SSE 7 11 4 6 1021.0 1020.9 0.0
28/08:00am 18.7 21.1 18.0 96 0.4 SW 2 6 1 3 1020.9 1020.8 0.0
28/07:30am 16.3 18.3 16.0 98 0.2 CALM 0 0 0 0 1020.6 1020.5 0.0
28/07:00am 14.1 14.8 13.3 95 0.4 SW 2 6 1 3 1020.2 1020.1 0.0
28/06:30am 13.8 14.8 13.2 96 0.3 CALM 0 0 0 0 1019.8 1019.7 0.0
28/06:00am 14.0 15.1 13.4 96 0.3 CALM 0 0 0 0 1019.7 1019.6 0.0
28/05:30am 14.5 15.0 14.0 97 0.3 WNW 4 7 2 4 1019.5 1019.4 0.0
28/05:17am 14.1 15.2 13.5 96 0.3 CALM 0 0 0 0 1019.3 1019.2 0.0
28/05:00am 14.2 15.3 13.6 96 0.3 CALM 0 0 0 0 1019.2 1019.1 0.0
28/04:59am 14.2 15.3 13.6 96 0.3 CALM 0 0 0 0 1019.2 1019.1 0.0
28/04:30am 14.2 15.3 13.4 95 0.4 CALM 0 0 0 0 1018.9 1018.8 0.0
28/04:00am 14.7 15.9 13.9 95 0.4 CALM 0 0 0 0 1018.8 1018.7 0.0
28/03:30am 15.5 16.3 14.7 95 0.5 NW 4 6 2 3 1018.9 1018.8 0.0
28/03:00am 15.9 15.9 15.3 96 0.3 SSW 9 11 5 6 1018.8 1018.7 0.0
28/02:30am 16.2 16.3 15.4 95 0.5 SSW 9 11 5 6 1018.9 1018.8 0.0
28/02:00am 16.5 17.1 15.7 95 0.5 SSW 7 9 4 5 1019.1 1019.0 0.0
28/01:30am 16.9 16.9 16.3 96 0.4 SSW 11 13 6 7 1019.5 1019.4 0.0
28/01:00am 17.1 17.4 16.1 94 0.6 SSW 9 13 5 7 1019.7 1019.6 0.0
28/12:51am 17.5 18.1 16.7 95 0.5 SSW 9 11 5 6 1019.9 1019.8 0.0
28/12:30am 17.7 18.7 16.9 95 0.5 SSW 7 9 4 5 1020.1 1020.0 0.0
28/12:00am 17.6 18.8 16.8 95 0.5 SW 6 6 3 3 1020.3 1020.2 0.0
 
Date/Time
EST
Temp
°C
App
Temp
°C
Dew
Point
Rel
Hum
%
Delta-T
°C
Wind Press
QNH
hPa
Press
MSL
hPa
Rain
since 9 am
mm
Dir
 
Spd
km/h
Gust
km/h
Spd
kts
Gust
kts
27/11:34pm 17.5 19.1 16.9 96 0.4 SW 4 7 2 4 1020.3 1020.2 0.0
27/11:30pm 17.5 18.7 16.9 96 0.4 SW 6 7 3 4 1020.3 1020.2 0.0
27/11:00pm 17.7 19.3 16.9 95 0.5 SW 4 7 2 4 1020.5 1020.4 0.0
27/10:57pm 17.7 19.7 16.9 95 0.5 SW 2 7 1 4 1020.5 1020.4 0.0
27/10:32pm 17.8 18.2 17.2 96 0.4 SSW 11 11 6 6 1020.6 1020.5 0.0
27/10:30pm 17.8 18.6 17.2 96 0.4 SW 9 11 5 6 1020.7 1020.6 0.0
27/10:00pm 17.5 18.0 16.5 94 0.6 SSW 9 9 5 5 1020.7 1020.6 0.0
27/09:30pm 18.2 19.4 17.4 95 0.5 S 7 9 4 5 1020.8 1020.7 0.0
27/09:00pm 18.0 18.0 17.2 95 0.5 SSW 13 15 7 8 1020.8 1020.7 0.0
27/08:30pm 18.3 19.3 16.8 91 0.9 S 7 7 4 4 1020.6 1020.5 0.0
27/08:00pm 19.1 20.3 17.4 90 1.0 SSE 7 9 4 5 1020.4 1020.3 0.0
27/07:30pm 19.8 21.2 17.9 89 1.2 SE 7 7 4 4 1020.2 1020.1 0.0
27/07:00pm 20.6 21.5 18.4 87 1.4 ESE 11 17 6 9 1019.6 1019.5 0.0
27/06:30pm 20.9 21.8 18.3 85 1.6 ESE 11 13 6 7 1019.5 1019.4 0.0
27/06:00pm 21.9 22.3 18.1 79 2.4 ESE 13 19 7 10 1019.1 1019.0 0.0
27/05:30pm 22.9 22.4 17.8 73 3.2 ESE 17 20 9 11 1018.6 1018.5 0.0
27/05:00pm 24.3 23.2 17.3 65 4.3 E 19 26 10 14 1018.4 1018.3 0.0
27/04:30pm 25.2 24.3 17.7 63 4.7 ESE 19 30 10 16 1018.0 1017.9 0.0
27/04:00pm 26.0 24.5 17.6 60 5.3 ESE 22 28 12 15 1017.9 1017.8 0.0
27/03:30pm 26.6 25.0 17.4 57 5.8 E 22 30 12 16 1017.6 1017.6 0.0
27/03:00pm 26.5 25.1 17.0 56 5.9 E 20 32 11 17 1017.9 1017.8 0.0
27/02:30pm 26.8 25.6 17.0 55 6.1 E 19 33 10 18 1017.9 1017.8 0.0
27/02:00pm 27.0 25.6 16.9 54 6.3 E 20 30 11 16 1018.2 1018.1 0.0
27/01:30pm 25.7 24.0 17.1 59 5.3 ESE 22 32 12 17 1018.5 1018.4 0.0
27/01:00pm 26.1 24.7 16.6 55 5.9 ESE 19 28 10 15 1018.9 1018.8 0.0
27/12:30pm 25.9 24.4 16.2 55 6.0 SE 19 26 10 14 1019.4 1019.3 0.0
27/12:00pm 26.8 25.8 16.7 54 6.3 ENE 17 30 9 16 1019.8 1019.7 0.0
27/11:30am 26.2 25.7 17.0 57 5.7 E 15 24 8 13 1020.1 1020.0 0.0
27/11:00am 25.7 25.1 18.4 64 4.6 SE 19 32 10 17 1020.5 1020.4 0.0
27/10:30am 25.2 25.0 17.7 63 4.7 ESE 15 22 8 12 1021.1 1021.0 0.0
27/10:00am 25.1 25.4 17.8 64 4.6 ESE 13 19 7 10 1021.2 1021.1 0.0
27/09:30am 23.7 24.0 17.9 70 3.6 SE 13 22 7 12 1021.4 1021.3 0.0
27/09:00am 22.7 24.3 18.3 76 2.8 SSE 7 15 4 8 1021.4 1021.3 0.0
27/08:30am 20.4 21.5 18.0 86 1.5 SSW 9 13 5 7 1021.4 1021.3 0.0
27/08:00am 18.9 19.9 17.7 93 0.7 SSW 9 11 5 6 1021.1 1021.0 0.0
27/07:30am 17.1 18.2 16.5 96 0.4 SSW 6 7 3 4 1020.7 1020.6 0.0
27/07:00am 14.1 14.5 13.8 98 0.2 SW 4 7 2 4 1020.4 1020.3 0.0
27/06:30am 12.1 11.2 11.3 95 0.4 SW 7 11 4 6 1020.1 1020.0 0.0
27/06:00am 12.8 12.3 12.5 98 0.2 SW 7 7 4 4 1019.8 1019.7 0.0
27/05:39am 12.9 13.0 12.6 98 0.2 SSW 4 9 2 5 1019.3 1019.2 0.0
27/05:30am 12.7 12.1 12.4 98 0.2 SSW 7 11 4 6 1019.1 1019.0 0.0
27/05:19am 12.0 12.4 11.4 96 0.3 CALM 0 0 0 0 1019.0 1018.9 0.0
27/05:00am 11.7 12.0 10.8 94 0.5 CALM 0 0 0 0 1019.0 1018.9 0.0
27/04:30am 13.0 13.7 12.2 95 0.4 CALM 0 0 0 0 1019.0 1018.9 0.0
27/04:00am 15.0 15.4 14.7 98 0.2 S 6 7 3 4 1018.9 1018.8 0.0
27/03:30am 13.5 12.7 12.9 96 0.3 SSW 9 9 5 5 1019.0 1018.9 0.0
27/03:00am 13.0 12.5 11.9 93 0.6 SW 6 7 3 4 1019.1 1019.0 0.0
27/02:30am 13.3 12.8 12.2 93 0.6 SSW 6 7 3 4 1019.2 1019.1 0.0
27/02:00am 13.1 13.7 12.0 93 0.6 CALM 0 0 0 0 1019.5 1019.4 0.0
27/01:30am 12.9 12.3 11.6 92 0.7 SSW 6 7 3 4 1019.8 1019.7 0.0
27/01:00am 13.6 13.0 12.2 91 0.8 SSW 7 7 4 4 1020.1 1020.0 0.0
27/12:30am 15.4 15.6 14.8 96 0.3 SSW 7 7 4 4 1020.4 1020.3 0.0
27/12:00am 14.2 13.8 12.9 92 0.7 SW 7 7 4 4 1020.5 1020.4 0.0
 
Date/Time
EST
Temp
°C
App
Temp
°C
Dew
Point
Rel
Hum
%
Delta-T
°C
Wind Press
QNH
hPa
Press
MSL
hPa
Rain
since 9 am
mm
Dir
 
Spd
km/h
Gust
km/h
Spd
kts
Gust
kts
26/11:30pm 14.9 14.6 13.3 90 0.9 SSW 7 9 4 5 1020.6 1020.5 0.0
26/11:00pm 15.2 15.3 14.4 95 0.5 SSW 7 9 4 5 1020.7 1020.6 0.0

Other Formats:

Comma delimited format used in spreadsheet applications
http://www.bom.gov.au/fwo/IDQ60801/IDQ60801.94365.axf

JavaScript Object Notation format (JSON) in row-major order
http://www.bom.gov.au/fwo/IDQ60801/IDQ60801.94365.json